PWSweather.com
Personal Weather Stations
Station Observations
NAGEO265NE
Bedzin GrodziecPL 42-506

Bedzin GrodziecPL 42-506

Lat: 50.347, Lon: 19.079

Elevation: 948

Station Type: WH1080

http://www.meteo-grodziec.pl/

High Low Average
Temperature 46.8°F8.2°C 36.1°F2.3°C 41.2°F5.1°C
Dew Point 39.9°F4.4°C 33.3°F0.7°C 35.4°F1.9°C
Winds 5.0 mph 8.0 kmh Calm Calm 1.0 mph WSW1.6 kmh WSW
Wind Gusts 19.0 mph30.6 kmh -- 5.0 mph8.0 kmh
Humidity 94% 63% 80%
Pressure 30.23 in1023.7 mb 30.04 in1017.3 mb -
Precipitation 0.00 in0.0 mm - -
Hour Temp Dew Point Humidity Winds Wind Gusts Pressure Precip Precip Rate Daily Precip Total
12:00 AM 42.1°F5.6°C 39.9°F4.4°C 92% 2.0 mph WNW3.2 kmh WNW 10.0 mph16.1 kmh 30.04 in1017.3 mb 0.01 in0.3 mm 0.00 in0.0 mm 0.01 in0.3 mm
12:05 AM 42.1°F5.6°C 39.9°F4.4°C 92% 1.0 mph NW1.6 kmh NW 5.0 mph8.0 kmh 30.04 in1017.3 mb 0.01 in0.3 mm 0.00 in0.0 mm 0.01 in0.3 mm
12:10 AM 41.9°F5.5°C 39.7°F4.3°C 92% 1.0 mph NW1.6 kmh NW 7.0 mph11.3 kmh 30.04 in1017.3 mb 0.01 in0.3 mm 0.00 in0.0 mm 0.01 in0.3 mm
12:15 AM 41.9°F5.5°C 39.7°F4.3°C 92% 2.0 mph NW3.2 kmh NW 7.0 mph11.3 kmh 30.04 in1017.3 mb 0.01 in0.3 mm 0.00 in0.0 mm 0.01 in0.3 mm
12:20 AM 41.5°F5.3°C 39.2°F4.0°C 91% 2.0 mph NW3.2 kmh NW 7.0 mph11.3 kmh 30.04 in1017.3 mb 0.01 in0.3 mm 0.00 in0.0 mm 0.01 in0.3 mm
12:25 AM 41.4°F5.2°C 39.0°F3.9°C 91% 2.0 mph NW3.2 kmh NW 7.0 mph11.3 kmh 30.04 in1017.3 mb 0.01 in0.3 mm 0.00 in0.0 mm 0.01 in0.3 mm
12:30 AM 41.2°F5.1°C 38.8°F3.8°C 91% 2.0 mph NW3.2 kmh NW 9.0 mph14.5 kmh 30.04 in1017.3 mb 0.01 in0.3 mm 0.00 in0.0 mm 0.01 in0.3 mm
12:35 AM 41.2°F5.1°C 38.7°F3.7°C 91% 2.0 mph NW3.2 kmh NW 9.0 mph14.5 kmh 30.04 in1017.3 mb 0.01 in0.3 mm 0.00 in0.0 mm 0.01 in0.3 mm
12:40 AM 40.8°F4.9°C 38.5°F3.6°C 91% 1.0 mph NW1.6 kmh NW 4.0 mph6.4 kmh 30.04 in1017.3 mb 0.00 in0.0 mm 0.00 in0.0 mm 0.01 in0.3 mm
12:45 AM 40.6°F4.8°C 38.1°F3.4°C 91% 1.0 mph NW1.6 kmh NW 3.0 mph4.8 kmh 30.05 in1017.6 mb 0.00 in0.0 mm 0.00 in0.0 mm 0.01 in0.3 mm
12:50 AM 40.3°F4.6°C 37.9°F3.3°C 91% Calm Calm 2.0 mph3.2 kmh 30.04 in1017.3 mb 0.00 in0.0 mm 0.00 in0.0 mm 0.01 in0.3 mm
12:55 AM 40.1°F4.5°C 37.9°F3.3°C 92% Calm Calm 1.0 mph1.6 kmh 30.04 in1017.3 mb 0.00 in0.0 mm 0.00 in0.0 mm 0.01 in0.3 mm
01:00 AM 39.7°F4.3°C 37.6°F3.1°C 92% Calm Calm 1.0 mph1.6 kmh 30.04 in1017.3 mb 0.00 in0.0 mm 0.00 in0.0 mm 0.01 in0.3 mm
01:05 AM 39.6°F4.2°C 37.4°F3.0°C 92% Calm Calm 2.0 mph3.2 kmh 30.04 in1017.3 mb 0.00 in0.0 mm 0.00 in0.0 mm 0.01 in0.3 mm
01:10 AM 39.2°F4.0°C 37.0°F2.8°C 92% Calm Calm 2.0 mph3.2 kmh 30.05 in1017.6 mb 0.00 in0.0 mm 0.00 in0.0 mm 0.01 in0.3 mm
01:15 AM 39.0°F3.9°C 36.9°F2.7°C 92% Calm Calm 2.0 mph3.2 kmh 30.05 in1017.6 mb 0.00 in0.0 mm 0.00 in0.0 mm 0.01 in0.3 mm
01:20 AM 38.8°F3.8°C 36.9°F2.7°C 92% Calm Calm 2.0 mph3.2 kmh 30.05 in1017.6 mb 0.00 in0.0 mm 0.00 in0.0 mm 0.01 in0.3 mm
01:25 AM 38.7°F3.7°C 36.5°F2.5°C 92% Calm Calm 2.0 mph3.2 kmh 30.05 in1017.6 mb 0.00 in0.0 mm 0.00 in0.0 mm 0.01 in0.3 mm
01:30 AM 38.5°F3.6°C 36.5°F2.5°C 93% Calm Calm -- 30.05 in1017.6 mb 0.00 in0.0 mm 0.00 in0.0 mm 0.01 in0.3 mm
01:35 AM 38.1°F3.4°C 36.3°F2.4°C 93% Calm Calm 1.0 mph1.6 kmh 30.05 in1017.6 mb 0.00 in0.0 mm 0.00 in0.0 mm 0.01 in0.3 mm
01:40 AM 38.1°F3.4°C 36.3°F2.4°C 93% Calm Calm 1.0 mph1.6 kmh 30.05 in1017.6 mb 0.00 in0.0 mm 0.00 in0.0 mm 0.01 in0.3 mm
01:45 AM 37.9°F3.3°C 36.1°F2.3°C 93% Calm Calm 1.0 mph1.6 kmh 30.05 in1017.6 mb 0.00 in0.0 mm 0.00 in0.0 mm 0.01 in0.3 mm
01:50 AM 37.9°F3.3°C 36.1°F2.3°C 93% Calm Calm -- 30.05 in1017.6 mb 0.00 in0.0 mm 0.00 in0.0 mm 0.01 in0.3 mm
01:55 AM 37.8°F3.2°C 36.0°F2.2°C 93% Calm Calm -- 30.05 in1017.6 mb 0.00 in0.0 mm 0.00 in0.0 mm 0.01 in0.3 mm
02:00 AM 37.6°F3.1°C 35.8°F2.1°C 93% Calm Calm -- 30.05 in1017.6 mb 0.00 in0.0 mm 0.00 in0.0 mm 0.01 in0.3 mm
02:05 AM 37.6°F3.1°C 35.6°F2.0°C 93% Calm Calm -- 30.05 in1017.6 mb 0.00 in0.0 mm 0.00 in0.0 mm 0.01 in0.3 mm
02:10 AM 37.2°F2.9°C 35.4°F1.9°C 93% Calm Calm -- 30.05 in1017.6 mb 0.00 in0.0 mm 0.00 in0.0 mm 0.01 in0.3 mm
02:15 AM 37.0°F2.8°C 35.2°F1.8°C 93% Calm Calm -- 30.05 in1017.6 mb 0.00 in0.0 mm 0.00 in0.0 mm 0.01 in0.3 mm
02:20 AM 36.9°F2.7°C 35.4°F1.9°C 94% Calm Calm 1.0 mph1.6 kmh 30.05 in1017.6 mb 0.00 in0.0 mm 0.00 in0.0 mm 0.01 in0.3 mm
02:25 AM 36.9°F2.7°C 35.2°F1.8°C 94% Calm Calm 1.0 mph1.6 kmh 30.05 in1017.6 mb 0.00 in0.0 mm 0.00 in0.0 mm 0.01 in0.3 mm
02:30 AM 36.7°F2.6°C 35.1°F1.7°C 94% Calm Calm 1.0 mph1.6 kmh 30.05 in1017.6 mb 0.00 in0.0 mm 0.00 in0.0 mm 0.01 in0.3 mm
02:35 AM 36.9°F2.7°C 35.2°F1.8°C 94% Calm Calm 1.0 mph1.6 kmh 30.05 in1017.6 mb 0.00 in0.0 mm 0.00 in0.0 mm 0.01 in0.3 mm
02:40 AM 36.9°F2.7°C 35.2°F1.8°C 94% Calm Calm 1.0 mph1.6 kmh 30.05 in1017.6 mb 0.00 in0.0 mm 0.00 in0.0 mm 0.01 in0.3 mm
02:45 AM 36.9°F2.7°C 35.2°F1.8°C 94% Calm Calm 1.0 mph1.6 kmh 30.05 in1017.6 mb 0.00 in0.0 mm 0.00 in0.0 mm 0.01 in0.3 mm
02:50 AM 36.7°F2.6°C 35.1°F1.7°C 94% Calm Calm 1.0 mph1.6 kmh 30.05 in1017.6 mb 0.00 in0.0 mm 0.00 in0.0 mm 0.01 in0.3 mm
02:55 AM 36.7°F2.6°C 35.1°F1.7°C 94% Calm Calm 2.0 mph3.2 kmh 30.05 in1017.6 mb 0.00 in0.0 mm 0.00 in0.0 mm 0.01 in0.3 mm
03:00 AM 36.9°F2.7°C 35.2°F1.8°C 94% Calm Calm 2.0 mph3.2 kmh 30.05 in1017.6 mb 0.00 in0.0 mm 0.00 in0.0 mm 0.01 in0.3 mm
03:05 AM 36.9°F2.7°C 35.4°F1.9°C 94% Calm Calm 1.0 mph1.6 kmh 30.05 in1017.6 mb 0.00 in0.0 mm 0.00 in0.0 mm 0.01 in0.3 mm
03:10 AM 37.0°F2.8°C 35.4°F1.9°C 94% Calm Calm 1.0 mph1.6 kmh 30.05 in1017.6 mb 0.00 in0.0 mm 0.00 in0.0 mm 0.01 in0.3 mm
03:15 AM 37.0°F2.8°C 35.4°F1.9°C 94% Calm Calm 1.0 mph1.6 kmh 30.05 in1017.6 mb 0.00 in0.0 mm 0.00 in0.0 mm 0.01 in0.3 mm
03:20 AM 36.9°F2.7°C 35.2°F1.8°C 94% Calm Calm 1.0 mph1.6 kmh 30.05 in1017.6 mb 0.00 in0.0 mm 0.00 in0.0 mm 0.01 in0.3 mm
03:25 AM 36.7°F2.6°C 35.1°F1.7°C 94% Calm Calm 1.0 mph1.6 kmh 30.05 in1017.6 mb 0.00 in0.0 mm 0.00 in0.0 mm 0.01 in0.3 mm
03:30 AM 36.5°F2.5°C 34.9°F1.6°C 94% Calm Calm -- 30.05 in1017.6 mb 0.00 in0.0 mm 0.00 in0.0 mm 0.01 in0.3 mm
03:35 AM 36.3°F2.4°C 34.7°F1.5°C 94% Calm Calm -- 30.05 in1017.6 mb 0.00 in0.0 mm 0.00 in0.0 mm 0.01 in0.3 mm
03:40 AM 36.1°F2.3°C 34.5°F1.4°C 94% Calm Calm -- 30.05 in1017.6 mb 0.00 in0.0 mm 0.00 in0.0 mm 0.01 in0.3 mm
03:45 AM 36.1°F2.3°C 34.5°F1.4°C 94% Calm Calm -- 30.05 in1017.6 mb 0.00 in0.0 mm 0.00 in0.0 mm 0.01 in0.3 mm
03:50 AM 36.1°F2.3°C 34.5°F1.4°C 94% Calm Calm -- 30.05 in1017.6 mb 0.00 in0.0 mm 0.00 in0.0 mm 0.01 in0.3 mm
03:55 AM 36.1°F2.3°C 34.7°F1.5°C 94% Calm Calm -- 30.05 in1017.6 mb 0.00 in0.0 mm 0.00 in0.0 mm 0.01 in0.3 mm
04:00 AM 36.3°F2.4°C 34.7°F1.5°C 94% Calm Calm -- 30.05 in1017.6 mb 0.00 in0.0 mm 0.00 in0.0 mm 0.01 in0.3 mm
04:05 AM 36.3°F2.4°C 34.7°F1.5°C 94% Calm Calm 1.0 mph1.6 kmh 30.06 in1017.9 mb 0.00 in0.0 mm 0.00 in0.0 mm 0.01 in0.3 mm
04:10 AM 36.3°F2.4°C 34.9°F1.6°C 94% Calm Calm 2.0 mph3.2 kmh 30.06 in1017.9 mb 0.00 in0.0 mm 0.00 in0.0 mm 0.01 in0.3 mm
04:15 AM 36.3°F2.4°C 34.9°F1.6°C 94% Calm Calm 2.0 mph3.2 kmh 30.06 in1017.9 mb 0.00 in0.0 mm 0.00 in0.0 mm 0.01 in0.3 mm
04:20 AM 36.3°F2.4°C 34.7°F1.5°C 94% Calm Calm 1.0 mph1.6 kmh 30.06 in1017.9 mb 0.00 in0.0 mm 0.00 in0.0 mm 0.01 in0.3 mm
04:25 AM 36.3°F2.4°C 34.7°F1.5°C 94% Calm Calm 1.0 mph1.6 kmh 30.06 in1017.9 mb 0.00 in0.0 mm 0.00 in0.0 mm 0.01 in0.3 mm
04:30 AM 36.3°F2.4°C 34.9°F1.6°C 94% Calm Calm -- 30.06 in1017.9 mb 0.00 in0.0 mm 0.00 in0.0 mm 0.01 in0.3 mm
04:35 AM 36.5°F2.5°C 34.9°F1.6°C 94% Calm Calm -- 30.06 in1017.9 mb 0.00 in0.0 mm 0.00 in0.0 mm 0.01 in0.3 mm
04:40 AM 36.7°F2.6°C 35.1°F1.7°C 94% Calm Calm 2.0 mph3.2 kmh 30.06 in1017.9 mb 0.00 in0.0 mm 0.00 in0.0 mm 0.01 in0.3 mm
04:45 AM 36.9°F2.7°C 35.4°F1.9°C 94% Calm Calm 2.0 mph3.2 kmh 30.06 in1017.9 mb 0.00 in0.0 mm 0.00 in0.0 mm 0.01 in0.3 mm
04:50 AM 36.9°F2.7°C 35.4°F1.9°C 94% Calm Calm 1.0 mph1.6 kmh 30.06 in1017.9 mb 0.00 in0.0 mm 0.00 in0.0 mm 0.01 in0.3 mm
04:55 AM 37.0°F2.8°C 35.4°F1.9°C 94% Calm Calm 2.0 mph3.2 kmh 30.06 in1017.9 mb 0.00 in0.0 mm 0.00 in0.0 mm 0.01 in0.3 mm
05:00 AM 37.0°F2.8°C 35.6°F2.0°C 94% Calm Calm 2.0 mph3.2 kmh 30.06 in1017.9 mb 0.00 in0.0 mm 0.00 in0.0 mm 0.01 in0.3 mm
05:05 AM 37.0°F2.8°C 35.6°F2.0°C 94% Calm Calm 1.0 mph1.6 kmh 30.06 in1017.9 mb 0.00 in0.0 mm 0.00 in0.0 mm 0.01 in0.3 mm
05:10 AM 37.2°F2.9°C 35.4°F1.9°C 93% Calm Calm 1.0 mph1.6 kmh 30.06 in1017.9 mb 0.00 in0.0 mm 0.00 in0.0 mm 0.01 in0.3 mm
05:15 AM 37.0°F2.8°C 35.2°F1.8°C 93% Calm Calm 1.0 mph1.6 kmh 30.06 in1017.9 mb 0.00 in0.0 mm 0.00 in0.0 mm 0.01 in0.3 mm
05:20 AM 37.0°F2.8°C 35.2°F1.8°C 93% Calm Calm 1.0 mph1.6 kmh 30.06 in1017.9 mb 0.00 in0.0 mm 0.00 in0.0 mm 0.01 in0.3 mm
05:25 AM 37.0°F2.8°C 35.2°F1.8°C 93% Calm Calm -- 30.06 in1017.9 mb 0.00 in0.0 mm 0.00 in0.0 mm 0.01 in0.3 mm
05:30 AM 37.2°F2.9°C 35.4°F1.9°C 93% Calm Calm -- 30.06 in1017.9 mb 0.00 in0.0 mm 0.00 in0.0 mm 0.01 in0.3 mm
05:35 AM 37.2°F2.9°C 35.4°F1.9°C 93% Calm Calm -- 30.06 in1017.9 mb 0.00 in0.0 mm 0.00 in0.0 mm 0.01 in0.3 mm
05:40 AM 37.2°F2.9°C 35.4°F1.9°C 93% Calm Calm 1.0 mph1.6 kmh 30.06 in1017.9 mb 0.00 in0.0 mm 0.00 in0.0 mm 0.01 in0.3 mm
05:45 AM 37.4°F3.0°C 35.6°F2.0°C 93% Calm Calm 2.0 mph3.2 kmh 30.07 in1018.3 mb 0.00 in0.0 mm 0.00 in0.0 mm 0.01 in0.3 mm
05:50 AM 37.6°F3.1°C 35.8°F2.1°C 93% Calm Calm 2.0 mph3.2 kmh 30.07 in1018.3 mb 0.00 in0.0 mm 0.00 in0.0 mm 0.01 in0.3 mm
05:55 AM 37.6°F3.1°C 35.8°F2.1°C 93% Calm Calm 1.0 mph1.6 kmh 30.07 in1018.3 mb 0.00 in0.0 mm 0.00 in0.0 mm 0.01 in0.3 mm
06:00 AM 37.8°F3.2°C 35.6°F2.0°C 92% Calm Calm 1.0 mph1.6 kmh 30.07 in1018.3 mb 0.00 in0.0 mm 0.00 in0.0 mm 0.01 in0.3 mm
06:05 AM 37.8°F3.2°C 35.6°F2.0°C 92% Calm Calm 1.0 mph1.6 kmh 30.07 in1018.3 mb 0.00 in0.0 mm 0.00 in0.0 mm 0.01 in0.3 mm
06:10 AM 37.8°F3.2°C 35.6°F2.0°C 92% Calm Calm 1.0 mph1.6 kmh 30.07 in1018.3 mb 0.00 in0.0 mm 0.00 in0.0 mm 0.01 in0.3 mm
06:15 AM 37.8°F3.2°C 35.6°F2.0°C 92% Calm Calm 1.0 mph1.6 kmh 30.07 in1018.3 mb 0.00 in0.0 mm 0.00 in0.0 mm 0.01 in0.3 mm
06:20 AM 37.6°F3.1°C 35.4°F1.9°C 92% Calm Calm 1.0 mph1.6 kmh 30.07 in1018.3 mb 0.00 in0.0 mm 0.00 in0.0 mm 0.01 in0.3 mm
06:25 AM 37.6°F3.1°C 35.4°F1.9°C 92% Calm Calm 1.0 mph1.6 kmh 30.07 in1018.3 mb 0.00 in0.0 mm 0.00 in0.0 mm 0.01 in0.3 mm
06:30 AM 37.2°F2.9°C 35.2°F1.8°C 92% Calm Calm 2.0 mph3.2 kmh 30.07 in1018.3 mb 0.00 in0.0 mm 0.00 in0.0 mm 0.01 in0.3 mm
06:35 AM 37.2°F2.9°C 34.9°F1.6°C 91% Calm Calm 2.0 mph3.2 kmh 30.07 in1018.3 mb 0.00 in0.0 mm 0.00 in0.0 mm 0.01 in0.3 mm
06:40 AM 37.2°F2.9°C 35.1°F1.7°C 92% Calm Calm 2.0 mph3.2 kmh 30.07 in1018.3 mb 0.00 in0.0 mm 0.00 in0.0 mm 0.01 in0.3 mm
06:45 AM 37.2°F2.9°C 35.2°F1.8°C 92% Calm Calm 2.0 mph3.2 kmh 30.07 in1018.3 mb 0.00 in0.0 mm 0.00 in0.0 mm 0.01 in0.3 mm
06:50 AM 37.6°F3.1°C 35.4°F1.9°C 92% Calm Calm 2.0 mph3.2 kmh 30.08 in1018.6 mb 0.00 in0.0 mm 0.00 in0.0 mm 0.01 in0.3 mm
06:55 AM 37.6°F3.1°C 35.4°F1.9°C 92% Calm Calm 4.0 mph6.4 kmh 30.08 in1018.6 mb 0.00 in0.0 mm 0.00 in0.0 mm 0.01 in0.3 mm
07:00 AM 37.8°F3.2°C 35.2°F1.8°C 91% Calm Calm 4.0 mph6.4 kmh 30.08 in1018.6 mb 0.00 in0.0 mm 0.00 in0.0 mm 0.01 in0.3 mm
07:05 AM 37.8°F3.2°C 35.4°F1.9°C 91% Calm Calm 3.0 mph4.8 kmh 30.08 in1018.6 mb 0.00 in0.0 mm 0.00 in0.0 mm 0.01 in0.3 mm
07:10 AM 37.9°F3.3°C 35.4°F1.9°C 91% Calm Calm 3.0 mph4.8 kmh 30.09 in1019.0 mb 0.00 in0.0 mm 0.00 in0.0 mm 0.01 in0.3 mm
07:15 AM 37.9°F3.3°C 35.6°F2.0°C 91% Calm Calm 1.0 mph1.6 kmh 30.09 in1019.0 mb 0.00 in0.0 mm 0.00 in0.0 mm 0.01 in0.3 mm
07:20 AM 38.1°F3.4°C 35.8°F2.1°C 91% Calm Calm 1.0 mph1.6 kmh 30.09 in1019.0 mb 0.00 in0.0 mm 0.00 in0.0 mm 0.01 in0.3 mm
07:25 AM 38.1°F3.4°C 35.8°F2.1°C 91% Calm Calm 3.0 mph4.8 kmh 30.09 in1019.0 mb 0.00 in0.0 mm 0.00 in0.0 mm 0.01 in0.3 mm
07:30 AM 38.3°F3.5°C 36.0°F2.2°C 91% Calm Calm 3.0 mph4.8 kmh 30.09 in1019.0 mb 0.00 in0.0 mm 0.00 in0.0 mm 0.01 in0.3 mm
07:35 AM 38.5°F3.6°C 36.0°F2.2°C 91% Calm Calm 3.0 mph4.8 kmh 30.09 in1019.0 mb 0.00 in0.0 mm 0.00 in0.0 mm 0.01 in0.3 mm
07:40 AM 38.7°F3.7°C 36.1°F2.3°C 91% 1.0 mph WSW1.6 kmh WSW 4.0 mph6.4 kmh 30.09 in1019.0 mb 0.00 in0.0 mm 0.00 in0.0 mm 0.01 in0.3 mm
07:45 AM 38.7°F3.7°C 36.3°F2.4°C 91% 1.0 mph WSW1.6 kmh WSW 4.0 mph6.4 kmh 30.09 in1019.0 mb 0.00 in0.0 mm 0.00 in0.0 mm 0.01 in0.3 mm
07:50 AM 38.8°F3.8°C 36.5°F2.5°C 91% Calm Calm 2.0 mph3.2 kmh 30.10 in1019.3 mb 0.00 in0.0 mm 0.00 in0.0 mm 0.01 in0.3 mm
07:55 AM 39.0°F3.9°C 36.5°F2.5°C 90% Calm Calm 4.0 mph6.4 kmh 30.09 in1019.0 mb 0.00 in0.0 mm 0.00 in0.0 mm 0.01 in0.3 mm
08:00 AM 39.2°F4.0°C 36.5°F2.5°C 90% Calm Calm 4.0 mph6.4 kmh 30.10 in1019.3 mb 0.00 in0.0 mm 0.00 in0.0 mm 0.01 in0.3 mm
08:05 AM 39.4°F4.1°C 36.7°F2.6°C 90% Calm Calm 3.0 mph4.8 kmh 30.10 in1019.3 mb 0.00 in0.0 mm 0.00 in0.0 mm 0.01 in0.3 mm
08:10 AM 39.4°F4.1°C 36.7°F2.6°C 90% Calm Calm 3.0 mph4.8 kmh 30.10 in1019.3 mb 0.00 in0.0 mm 0.00 in0.0 mm 0.01 in0.3 mm
08:15 AM 39.4°F4.1°C 36.7°F2.6°C 90% Calm Calm 7.0 mph11.3 kmh 30.10 in1019.3 mb 0.00 in0.0 mm 0.00 in0.0 mm 0.01 in0.3 mm
08:20 AM 39.6°F4.2°C 36.9°F2.7°C 90% 1.0 mph SW1.6 kmh SW 7.0 mph11.3 kmh 30.10 in1019.3 mb 0.00 in0.0 mm 0.00 in0.0 mm 0.01 in0.3 mm
08:25 AM 39.6°F4.2°C 36.7°F2.6°C 89% 1.0 mph WSW1.6 kmh WSW 3.0 mph4.8 kmh 30.10 in1019.3 mb 0.00 in0.0 mm 0.00 in0.0 mm 0.01 in0.3 mm
08:30 AM 39.7°F4.3°C 36.7°F2.6°C 89% Calm Calm 3.0 mph4.8 kmh 30.10 in1019.3 mb 0.00 in0.0 mm 0.00 in0.0 mm 0.01 in0.3 mm
08:35 AM 39.7°F4.3°C 36.7°F2.6°C 89% Calm Calm 4.0 mph6.4 kmh 30.11 in1019.6 mb 0.00 in0.0 mm 0.00 in0.0 mm 0.01 in0.3 mm
08:40 AM 39.7°F4.3°C 36.9°F2.7°C 89% 1.0 mph WSW1.6 kmh WSW 4.0 mph6.4 kmh 30.11 in1019.6 mb 0.00 in0.0 mm 0.00 in0.0 mm 0.01 in0.3 mm
08:45 AM 39.9°F4.4°C 37.0°F2.8°C 89% 1.0 mph WSW1.6 kmh WSW 4.0 mph6.4 kmh 30.11 in1019.6 mb 0.00 in0.0 mm 0.00 in0.0 mm 0.01 in0.3 mm
08:50 AM 40.1°F4.5°C 37.0°F2.8°C 89% 1.0 mph WSW1.6 kmh WSW 5.0 mph8.0 kmh 30.11 in1019.6 mb 0.00 in0.0 mm 0.00 in0.0 mm 0.01 in0.3 mm
08:55 AM 40.5°F4.7°C 37.4°F3.0°C 89% 1.0 mph W1.6 kmh W 5.0 mph8.0 kmh 30.11 in1019.6 mb 0.00 in0.0 mm 0.00 in0.0 mm 0.01 in0.3 mm
09:00 AM 40.6°F4.8°C 37.4°F3.0°C 88% 1.0 mph W1.6 kmh W 5.0 mph8.0 kmh 30.11 in1019.6 mb 0.00 in0.0 mm 0.00 in0.0 mm 0.01 in0.3 mm
09:05 AM 40.8°F4.9°C 37.6°F3.1°C 88% 1.0 mph W1.6 kmh W 7.0 mph11.3 kmh 30.12 in1020.0 mb 0.00 in0.0 mm 0.00 in0.0 mm 0.01 in0.3 mm
09:10 AM 40.8°F4.9°C 37.4°F3.0°C 87% 1.0 mph W1.6 kmh W 7.0 mph11.3 kmh 30.12 in1020.0 mb 0.00 in0.0 mm 0.00 in0.0 mm 0.01 in0.3 mm
09:15 AM 41.2°F5.1°C 37.6°F3.1°C 87% 1.0 mph W1.6 kmh W 7.0 mph11.3 kmh 30.12 in1020.0 mb 0.00 in0.0 mm 0.00 in0.0 mm 0.01 in0.3 mm
09:20 AM 41.4°F5.2°C 37.4°F3.0°C 86% 1.0 mph WNW1.6 kmh WNW 7.0 mph11.3 kmh 30.12 in1020.0 mb 0.00 in0.0 mm 0.00 in0.0 mm 0.01 in0.3 mm
09:25 AM 41.5°F5.3°C 37.6°F3.1°C 86% 1.0 mph W1.6 kmh W 7.0 mph11.3 kmh 30.12 in1020.0 mb 0.00 in0.0 mm 0.00 in0.0 mm 0.01 in0.3 mm
09:30 AM 41.5°F5.3°C 37.4°F3.0°C 85% 2.0 mph W3.2 kmh W 7.0 mph11.3 kmh 30.12 in1020.0 mb 0.00 in0.0 mm 0.00 in0.0 mm 0.01 in0.3 mm
09:35 AM 41.7°F5.4°C 37.6°F3.1°C 85% 2.0 mph WNW3.2 kmh WNW 7.0 mph11.3 kmh 30.12 in1020.0 mb 0.00 in0.0 mm 0.00 in0.0 mm 0.01 in0.3 mm
09:40 AM 42.1°F5.6°C 37.8°F3.2°C 85% 2.0 mph WNW3.2 kmh WNW 7.0 mph11.3 kmh 30.12 in1020.0 mb 0.00 in0.0 mm 0.00 in0.0 mm 0.01 in0.3 mm
09:45 AM 42.3°F5.7°C 37.8°F3.2°C 84% 1.0 mph W1.6 kmh W 6.0 mph9.7 kmh 30.12 in1020.0 mb 0.00 in0.0 mm 0.00 in0.0 mm 0.01 in0.3 mm
09:50 AM 42.3°F5.7°C 37.4°F3.0°C 83% 2.0 mph W3.2 kmh W 7.0 mph11.3 kmh 30.12 in1020.0 mb 0.00 in0.0 mm 0.00 in0.0 mm 0.01 in0.3 mm
09:55 AM 42.4°F5.8°C 37.6°F3.1°C 83% 2.0 mph W3.2 kmh W 7.0 mph11.3 kmh 30.12 in1020.0 mb 0.00 in0.0 mm 0.00 in0.0 mm 0.01 in0.3 mm
10:00 AM 42.4°F5.8°C 37.4°F3.0°C 82% 1.0 mph W1.6 kmh W 5.0 mph8.0 kmh 30.12 in1020.0 mb 0.00 in0.0 mm 0.00 in0.0 mm 0.01 in0.3 mm
10:05 AM 42.6°F5.9°C 37.6°F3.1°C 82% 2.0 mph W3.2 kmh W 11.0 mph17.7 kmh 30.13 in1020.3 mb 0.00 in0.0 mm 0.00 in0.0 mm 0.01 in0.3 mm
10:10 AM 42.6°F5.9°C 37.2°F2.9°C 81% 2.0 mph WSW3.2 kmh WSW 11.0 mph17.7 kmh 30.13 in1020.3 mb 0.00 in0.0 mm 0.00 in0.0 mm 0.01 in0.3 mm
10:15 AM 42.6°F5.9°C 37.2°F2.9°C 81% 2.0 mph WSW3.2 kmh WSW 11.0 mph17.7 kmh 30.13 in1020.3 mb 0.00 in0.0 mm 0.00 in0.0 mm 0.01 in0.3 mm
10:20 AM 43.0°F6.1°C 37.9°F3.3°C 82% 2.0 mph WSW3.2 kmh WSW 11.0 mph17.7 kmh 30.13 in1020.3 mb 0.00 in0.0 mm 0.00 in0.0 mm 0.01 in0.3 mm
10:25 AM 44.1°F6.7°C 38.7°F3.7°C 81% 3.0 mph WSW4.8 kmh WSW 11.0 mph17.7 kmh 30.13 in1020.3 mb 0.00 in0.0 mm 0.00 in0.0 mm 0.01 in0.3 mm
10:30 AM 44.8°F7.1°C 38.7°F3.7°C 79% 3.0 mph W4.8 kmh W 11.0 mph17.7 kmh 30.13 in1020.3 mb 0.00 in0.0 mm 0.00 in0.0 mm 0.01 in0.3 mm
10:35 AM 44.4°F6.9°C 37.9°F3.3°C 78% 4.0 mph W6.4 kmh W 12.0 mph19.3 kmh 30.13 in1020.3 mb 0.00 in0.0 mm 0.00 in0.0 mm 0.01 in0.3 mm
10:40 AM 44.2°F6.8°C 37.9°F3.3°C 78% 4.0 mph W6.4 kmh W 12.0 mph19.3 kmh 30.14 in1020.7 mb 0.00 in0.0 mm 0.00 in0.0 mm 0.01 in0.3 mm
10:45 AM 44.1°F6.7°C 37.8°F3.2°C 78% 3.0 mph WNW4.8 kmh WNW 9.0 mph14.5 kmh 30.14 in1020.7 mb 0.00 in0.0 mm 0.00 in0.0 mm 0.01 in0.3 mm
10:50 AM 43.9°F6.6°C 37.4°F3.0°C 78% 2.0 mph NW3.2 kmh NW 8.0 mph12.9 kmh 30.14 in1020.7 mb 0.00 in0.0 mm 0.00 in0.0 mm 0.01 in0.3 mm
10:55 AM 43.7°F6.5°C 37.2°F2.9°C 78% 3.0 mph WNW4.8 kmh WNW 11.0 mph17.7 kmh 30.14 in1020.7 mb 0.00 in0.0 mm 0.00 in0.0 mm 0.01 in0.3 mm
11:00 AM 43.9°F6.6°C 37.8°F3.2°C 79% 4.0 mph W6.4 kmh W 11.0 mph17.7 kmh 30.13 in1020.3 mb 0.00 in0.0 mm 0.00 in0.0 mm 0.01 in0.3 mm
11:05 AM 44.1°F6.7°C 37.9°F3.3°C 79% 2.0 mph WSW3.2 kmh WSW 7.0 mph11.3 kmh 30.13 in1020.3 mb 0.00 in0.0 mm 0.00 in0.0 mm 0.01 in0.3 mm
11:10 AM 44.2°F6.8°C 37.8°F3.2°C 78% 2.0 mph WSW3.2 kmh WSW 9.0 mph14.5 kmh 30.13 in1020.3 mb 0.00 in0.0 mm 0.00 in0.0 mm 0.01 in0.3 mm
11:15 AM 44.2°F6.8°C 37.9°F3.3°C 78% 2.0 mph W3.2 kmh W 9.0 mph14.5 kmh 30.14 in1020.7 mb 0.00 in0.0 mm 0.00 in0.0 mm 0.01 in0.3 mm
11:20 AM 44.2°F6.8°C 37.9°F3.3°C 78% 2.0 mph W3.2 kmh W 10.0 mph16.1 kmh 30.14 in1020.7 mb 0.00 in0.0 mm 0.00 in0.0 mm 0.01 in0.3 mm
11:25 AM 44.2°F6.8°C 37.4°F3.0°C 77% 2.0 mph W3.2 kmh W 10.0 mph16.1 kmh 30.14 in1020.7 mb 0.00 in0.0 mm 0.00 in0.0 mm 0.01 in0.3 mm
11:30 AM 44.2°F6.8°C 37.8°F3.2°C 78% 2.0 mph W3.2 kmh W 8.0 mph12.9 kmh 30.14 in1020.7 mb 0.00 in0.0 mm 0.00 in0.0 mm 0.01 in0.3 mm
11:35 AM 44.2°F6.8°C 37.8°F3.2°C 78% 3.0 mph WNW4.8 kmh WNW 10.0 mph16.1 kmh 30.14 in1020.7 mb 0.00 in0.0 mm 0.00 in0.0 mm 0.01 in0.3 mm
11:40 AM 44.1°F6.7°C 37.4°F3.0°C 77% 3.0 mph WNW4.8 kmh WNW 10.0 mph16.1 kmh 30.14 in1020.7 mb 0.00 in0.0 mm 0.00 in0.0 mm 0.01 in0.3 mm
11:45 AM 44.1°F6.7°C 37.4°F3.0°C 77% 3.0 mph WNW4.8 kmh WNW 10.0 mph16.1 kmh 30.14 in1020.7 mb 0.00 in0.0 mm 0.00 in0.0 mm 0.01 in0.3 mm
11:50 AM 44.1°F6.7°C 37.4°F3.0°C 77% 3.0 mph NW4.8 kmh NW 9.0 mph14.5 kmh 30.14 in1020.7 mb 0.00 in0.0 mm 0.00 in0.0 mm 0.01 in0.3 mm
11:55 AM 44.2°F6.8°C 37.4°F3.0°C 77% 2.0 mph NW3.2 kmh NW 9.0 mph14.5 kmh 30.14 in1020.7 mb 0.00 in0.0 mm 0.00 in0.0 mm 0.01 in0.3 mm
12:00 PM 44.1°F6.7°C 37.4°F3.0°C 77% 3.0 mph NW4.8 kmh NW 11.0 mph17.7 kmh 30.14 in1020.7 mb 0.00 in0.0 mm 0.00 in0.0 mm 0.01 in0.3 mm
12:05 PM 44.2°F6.8°C 37.6°F3.1°C 77% 3.0 mph NW4.8 kmh NW 11.0 mph17.7 kmh 30.14 in1020.7 mb 0.00 in0.0 mm 0.00 in0.0 mm 0.01 in0.3 mm
12:10 PM 44.4°F6.9°C 37.6°F3.1°C 77% 3.0 mph WNW4.8 kmh WNW 8.0 mph12.9 kmh 30.13 in1020.3 mb 0.00 in0.0 mm 0.00 in0.0 mm 0.01 in0.3 mm
12:15 PM 44.4°F6.9°C 37.4°F3.0°C 76% 3.0 mph WNW4.8 kmh WNW 11.0 mph17.7 kmh 30.14 in1020.7 mb 0.00 in0.0 mm 0.00 in0.0 mm 0.01 in0.3 mm
12:20 PM 44.8°F7.1°C 37.8°F3.2°C 76% 3.0 mph NW4.8 kmh NW 11.0 mph17.7 kmh 30.14 in1020.7 mb 0.00 in0.0 mm 0.00 in0.0 mm 0.01 in0.3 mm
12:25 PM 45.1°F7.3°C 37.2°F2.9°C 74% 3.0 mph WNW4.8 kmh WNW 11.0 mph17.7 kmh 30.14 in1020.7 mb 0.00 in0.0 mm 0.00 in0.0 mm 0.01 in0.3 mm
12:30 PM 45.3°F7.4°C 37.2°F2.9°C 73% 4.0 mph NW6.4 kmh NW 11.0 mph17.7 kmh 30.14 in1020.7 mb 0.00 in0.0 mm 0.00 in0.0 mm 0.01 in0.3 mm
12:35 PM 45.7°F7.6°C 37.0°F2.8°C 72% 3.0 mph NW4.8 kmh NW 10.0 mph16.1 kmh 30.14 in1020.7 mb 0.00 in0.0 mm 0.00 in0.0 mm 0.01 in0.3 mm
12:40 PM 46.0°F7.8°C 37.2°F2.9°C 71% 3.0 mph WNW4.8 kmh WNW 10.0 mph16.1 kmh 30.14 in1020.7 mb 0.00 in0.0 mm 0.00 in0.0 mm 0.01 in0.3 mm
12:45 PM 46.4°F8.0°C 37.2°F2.9°C 70% 3.0 mph W4.8 kmh W 10.0 mph16.1 kmh 30.13 in1020.3 mb 0.00 in0.0 mm 0.00 in0.0 mm 0.01 in0.3 mm
12:50 PM 46.2°F7.9°C 36.7°F2.6°C 69% 3.0 mph W4.8 kmh W 10.0 mph16.1 kmh 30.13 in1020.3 mb 0.00 in0.0 mm 0.00 in0.0 mm 0.01 in0.3 mm
12:55 PM 46.6°F8.1°C 36.5°F2.5°C 68% 4.0 mph WNW6.4 kmh WNW 10.0 mph16.1 kmh 30.13 in1020.3 mb 0.00 in0.0 mm 0.00 in0.0 mm 0.01 in0.3 mm
01:00 PM 46.8°F8.2°C 36.9°F2.7°C 68% 3.0 mph WNW4.8 kmh WNW 10.0 mph16.1 kmh 30.13 in1020.3 mb 0.00 in0.0 mm 0.00 in0.0 mm 0.01 in0.3 mm
01:05 PM 46.8°F8.2°C 36.0°F2.2°C 66% 3.0 mph NW4.8 kmh NW 12.0 mph19.3 kmh 30.13 in1020.3 mb 0.00 in0.0 mm 0.00 in0.0 mm 0.01 in0.3 mm
01:10 PM 46.4°F8.0°C 35.6°F2.0°C 66% 4.0 mph NW6.4 kmh NW 12.0 mph19.3 kmh 30.13 in1020.3 mb 0.00 in0.0 mm 0.00 in0.0 mm 0.01 in0.3 mm
01:15 PM 46.6°F8.1°C 35.8°F2.1°C 66% 4.0 mph WNW6.4 kmh WNW 11.0 mph17.7 kmh 30.13 in1020.3 mb 0.00 in0.0 mm 0.00 in0.0 mm 0.01 in0.3 mm
01:20 PM 46.2°F7.9°C 35.6°F2.0°C 66% 3.0 mph WNW4.8 kmh WNW 11.0 mph17.7 kmh 30.13 in1020.3 mb 0.00 in0.0 mm 0.00 in0.0 mm 0.01 in0.3 mm
01:25 PM 46.0°F7.8°C 34.9°F1.6°C 65% 3.0 mph W4.8 kmh W 12.0 mph19.3 kmh 30.13 in1020.3 mb 0.00 in0.0 mm 0.00 in0.0 mm 0.01 in0.3 mm
01:30 PM 45.7°F7.6°C 35.1°F1.7°C 66% 3.0 mph WNW4.8 kmh WNW 12.0 mph19.3 kmh 30.14 in1020.7 mb 0.00 in0.0 mm 0.00 in0.0 mm 0.01 in0.3 mm
01:35 PM 45.3°F7.4°C 34.7°F1.5°C 66% 3.0 mph WNW4.8 kmh WNW 8.0 mph12.9 kmh 30.13 in1020.3 mb 0.00 in0.0 mm 0.00 in0.0 mm 0.01 in0.3 mm
01:40 PM 45.3°F7.4°C 35.1°F1.7°C 67% 2.0 mph WNW3.2 kmh WNW 7.0 mph11.3 kmh 30.14 in1020.7 mb 0.00 in0.0 mm 0.00 in0.0 mm 0.01 in0.3 mm
01:45 PM 45.3°F7.4°C 35.1°F1.7°C 67% 2.0 mph NW3.2 kmh NW 10.0 mph16.1 kmh 30.14 in1020.7 mb 0.00 in0.0 mm 0.00 in0.0 mm 0.01 in0.3 mm
01:50 PM 45.3°F7.4°C 35.4°F1.9°C 68% 2.0 mph WNW3.2 kmh WNW 10.0 mph16.1 kmh 30.14 in1020.7 mb 0.00 in0.0 mm 0.00 in0.0 mm 0.01 in0.3 mm
01:55 PM 45.3°F7.4°C 35.8°F2.1°C 69% 1.0 mph WNW1.6 kmh WNW 5.0 mph8.0 kmh 30.14 in1020.7 mb 0.00 in0.0 mm 0.00 in0.0 mm 0.01 in0.3 mm
02:00 PM 45.3°F7.4°C 36.1°F2.3°C 70% 2.0 mph W3.2 kmh W 6.0 mph9.7 kmh 30.14 in1020.7 mb 0.00 in0.0 mm 0.00 in0.0 mm 0.01 in0.3 mm
02:05 PM 45.3°F7.4°C 36.1°F2.3°C 70% 2.0 mph W3.2 kmh W 9.0 mph14.5 kmh 30.14 in1020.7 mb 0.00 in0.0 mm 0.00 in0.0 mm 0.01 in0.3 mm
02:10 PM 45.1°F7.3°C 35.2°F1.8°C 68% 2.0 mph W3.2 kmh W 9.0 mph14.5 kmh 30.14 in1020.7 mb 0.00 in0.0 mm 0.00 in0.0 mm 0.01 in0.3 mm
02:15 PM 45.1°F7.3°C 34.9°F1.6°C 67% 4.0 mph WNW6.4 kmh WNW 19.0 mph30.6 kmh 30.14 in1020.7 mb 0.00 in0.0 mm 0.00 in0.0 mm 0.01 in0.3 mm
02:20 PM 45.1°F7.3°C 34.9°F1.6°C 67% 4.0 mph WNW6.4 kmh WNW 19.0 mph30.6 kmh 30.14 in1020.7 mb 0.00 in0.0 mm 0.00 in0.0 mm 0.01 in0.3 mm
02:25 PM 45.1°F7.3°C 34.9°F1.6°C 67% 3.0 mph W4.8 kmh W 13.0 mph20.9 kmh 30.14 in1020.7 mb 0.00 in0.0 mm 0.00 in0.0 mm 0.01 in0.3 mm
02:30 PM 45.1°F7.3°C 34.3°F1.3°C 66% 4.0 mph WNW6.4 kmh WNW 13.0 mph20.9 kmh 30.15 in1021.0 mb 0.00 in0.0 mm 0.00 in0.0 mm 0.01 in0.3 mm
02:35 PM 45.1°F7.3°C 34.5°F1.4°C 66% 3.0 mph NW4.8 kmh NW 11.0 mph17.7 kmh 30.14 in1020.7 mb 0.00 in0.0 mm 0.00 in0.0 mm 0.01 in0.3 mm
02:40 PM 45.1°F7.3°C 34.2°F1.2°C 65% 2.0 mph WNW3.2 kmh WNW 6.0 mph9.7 kmh 30.15 in1021.0 mb 0.00 in0.0 mm 0.00 in0.0 mm 0.01 in0.3 mm
02:45 PM 45.1°F7.3°C 33.8°F1.0°C 64% 2.0 mph W3.2 kmh W 10.0 mph16.1 kmh 30.15 in1021.0 mb 0.00 in0.0 mm 0.00 in0.0 mm 0.01 in0.3 mm
02:50 PM 45.1°F7.3°C 33.8°F1.0°C 64% 3.0 mph WNW4.8 kmh WNW 10.0 mph16.1 kmh 30.15 in1021.0 mb 0.00 in0.0 mm 0.00 in0.0 mm 0.01 in0.3 mm
02:55 PM 45.1°F7.3°C 33.3°F0.7°C 63% 3.0 mph WNW4.8 kmh WNW 9.0 mph14.5 kmh 30.15 in1021.0 mb 0.00 in0.0 mm 0.00 in0.0 mm 0.01 in0.3 mm
03:00 PM 45.1°F7.3°C 33.3°F0.7°C 63% 3.0 mph WNW4.8 kmh WNW 9.0 mph14.5 kmh 30.15 in1021.0 mb 0.00 in0.0 mm 0.00 in0.0 mm 0.01 in0.3 mm
03:05 PM 45.1°F7.3°C 33.3°F0.7°C 63% 4.0 mph NW6.4 kmh NW 11.0 mph17.7 kmh 30.15 in1021.0 mb 0.00 in0.0 mm 0.00 in0.0 mm 0.01 in0.3 mm
03:10 PM 45.1°F7.3°C 33.6°F0.9°C 64% 4.0 mph WNW6.4 kmh WNW 13.0 mph20.9 kmh 30.15 in1021.0 mb 0.00 in0.0 mm 0.00 in0.0 mm 0.01 in0.3 mm
03:15 PM 45.1°F7.3°C 33.8°F1.0°C 64% 4.0 mph WNW6.4 kmh WNW 13.0 mph20.9 kmh 30.15 in1021.0 mb 0.00 in0.0 mm 0.00 in0.0 mm 0.01 in0.3 mm
03:20 PM 45.3°F7.4°C 33.8°F1.0°C 64% 4.0 mph WNW6.4 kmh WNW 12.0 mph19.3 kmh 30.15 in1021.0 mb 0.00 in0.0 mm 0.00 in0.0 mm 0.01 in0.3 mm
03:25 PM 45.3°F7.4°C 33.8°F1.0°C 64% 3.0 mph WNW4.8 kmh WNW 10.0 mph16.1 kmh 30.15 in1021.0 mb 0.00 in0.0 mm 0.00 in0.0 mm 0.01 in0.3 mm
03:30 PM 45.1°F7.3°C 33.8°F1.0°C 64% 4.0 mph NW6.4 kmh NW 15.0 mph24.1 kmh 30.15 in1021.0 mb 0.00 in0.0 mm 0.00 in0.0 mm 0.01 in0.3 mm
03:35 PM 45.1°F7.3°C 33.8°F1.0°C 64% 5.0 mph NW8.0 kmh NW 15.0 mph24.1 kmh 30.15 in1021.0 mb 0.00 in0.0 mm 0.00 in0.0 mm 0.01 in0.3 mm
03:40 PM 45.1°F7.3°C 33.6°F0.9°C 64% 5.0 mph NW8.0 kmh NW 14.0 mph22.5 kmh 30.15 in1021.0 mb 0.00 in0.0 mm 0.00 in0.0 mm 0.01 in0.3 mm
03:45 PM 45.0°F7.2°C 34.0°F1.1°C 65% 5.0 mph WNW8.0 kmh WNW 15.0 mph24.1 kmh 30.16 in1021.3 mb 0.00 in0.0 mm 0.00 in0.0 mm 0.01 in0.3 mm
03:50 PM 45.0°F7.2°C 33.8°F1.0°C 65% 4.0 mph WNW6.4 kmh WNW 15.0 mph24.1 kmh 30.16 in1021.3 mb 0.00 in0.0 mm 0.00 in0.0 mm 0.01 in0.3 mm
03:55 PM 45.0°F7.2°C 34.2°F1.2°C 66% 4.0 mph NW6.4 kmh NW 10.0 mph16.1 kmh 30.16 in1021.3 mb 0.00 in0.0 mm 0.00 in0.0 mm 0.01 in0.3 mm
04:00 PM 45.0°F7.2°C 34.2°F1.2°C 66% 3.0 mph NW4.8 kmh NW 10.0 mph16.1 kmh 30.16 in1021.3 mb 0.00 in0.0 mm 0.00 in0.0 mm 0.01 in0.3 mm
04:05 PM 45.0°F7.2°C 34.2°F1.2°C 66% 3.0 mph NW4.8 kmh NW 8.0 mph12.9 kmh 30.16 in1021.3 mb 0.00 in0.0 mm 0.00 in0.0 mm 0.01 in0.3 mm
04:10 PM 45.0°F7.2°C 34.2°F1.2°C 66% 3.0 mph NW4.8 kmh NW 10.0 mph16.1 kmh 30.16 in1021.3 mb 0.00 in0.0 mm 0.00 in0.0 mm 0.01 in0.3 mm
04:15 PM 44.8°F7.1°C 34.2°F1.2°C 66% 3.0 mph NW4.8 kmh NW 10.0 mph16.1 kmh 30.16 in1021.3 mb 0.00 in0.0 mm 0.00 in0.0 mm 0.01 in0.3 mm
04:20 PM 44.8°F7.1°C 34.3°F1.3°C 67% 3.0 mph NW4.8 kmh NW 10.0 mph16.1 kmh 30.16 in1021.3 mb 0.00 in0.0 mm 0.00 in0.0 mm 0.01 in0.3 mm
04:25 PM 44.8°F7.1°C 34.3°F1.3°C 67% 2.0 mph NW3.2 kmh NW 9.0 mph14.5 kmh 30.16 in1021.3 mb 0.00 in0.0 mm 0.00 in0.0 mm 0.01 in0.3 mm
04:30 PM 44.6°F7.0°C 34.3°F1.3°C 67% 2.0 mph NW3.2 kmh NW 9.0 mph14.5 kmh 30.16 in1021.3 mb 0.00 in0.0 mm 0.00 in0.0 mm 0.01 in0.3 mm
04:35 PM 44.4°F6.9°C 34.5°F1.4°C 68% 2.0 mph NW3.2 kmh NW 7.0 mph11.3 kmh 30.16 in1021.3 mb 0.00 in0.0 mm 0.00 in0.0 mm 0.01 in0.3 mm
04:40 PM 44.2°F6.8°C 34.3°F1.3°C 68% 2.0 mph WNW3.2 kmh WNW 6.0 mph9.7 kmh 30.16 in1021.3 mb 0.00 in0.0 mm 0.00 in0.0 mm 0.01 in0.3 mm
04:45 PM 44.2°F6.8°C 34.3°F1.3°C 68% 2.0 mph WNW3.2 kmh WNW 8.0 mph12.9 kmh 30.16 in1021.3 mb 0.00 in0.0 mm 0.00 in0.0 mm 0.01 in0.3 mm
04:50 PM 44.1°F6.7°C 34.2°F1.2°C 68% 2.0 mph NW3.2 kmh NW 8.0 mph12.9 kmh 30.17 in1021.7 mb 0.00 in0.0 mm 0.00 in0.0 mm 0.01 in0.3 mm
04:55 PM 44.1°F6.7°C 34.5°F1.4°C 69% 2.0 mph NW3.2 kmh NW 9.0 mph14.5 kmh 30.17 in1021.7 mb 0.00 in0.0 mm 0.00 in0.0 mm 0.01 in0.3 mm
05:00 PM 43.9°F6.6°C 34.3°F1.3°C 69% 2.0 mph NW3.2 kmh NW 9.0 mph14.5 kmh 30.17 in1021.7 mb 0.00 in0.0 mm 0.00 in0.0 mm 0.01 in0.3 mm
05:05 PM 43.7°F6.5°C 34.2°F1.2°C 69% 1.0 mph W1.6 kmh W 6.0 mph9.7 kmh 30.17 in1021.7 mb 0.00 in0.0 mm 0.00 in0.0 mm 0.01 in0.3 mm
05:10 PM 43.5°F6.4°C 34.5°F1.4°C 70% 2.0 mph WNW3.2 kmh WNW 6.0 mph9.7 kmh 30.17 in1021.7 mb 0.00 in0.0 mm 0.00 in0.0 mm 0.01 in0.3 mm
05:15 PM 43.5°F6.4°C 34.3°F1.3°C 70% 2.0 mph NW3.2 kmh NW 6.0 mph9.7 kmh 30.17 in1021.7 mb 0.00 in0.0 mm 0.00 in0.0 mm 0.01 in0.3 mm
05:20 PM 43.3°F6.3°C 34.2°F1.2°C 70% 1.0 mph WNW1.6 kmh WNW 5.0 mph8.0 kmh 30.17 in1021.7 mb 0.00 in0.0 mm 0.00 in0.0 mm 0.01 in0.3 mm
05:25 PM 43.2°F6.2°C 34.3°F1.3°C 71% 1.0 mph WNW1.6 kmh WNW 3.0 mph4.8 kmh 30.18 in1022.0 mb 0.00 in0.0 mm 0.00 in0.0 mm 0.01 in0.3 mm
05:30 PM 43.0°F6.1°C 34.2°F1.2°C 71% 1.0 mph WNW1.6 kmh WNW 3.0 mph4.8 kmh 30.18 in1022.0 mb 0.00 in0.0 mm 0.00 in0.0 mm 0.01 in0.3 mm
05:35 PM 42.8°F6.0°C 34.0°F1.1°C 71% Calm Calm 3.0 mph4.8 kmh 30.18 in1022.0 mb 0.00 in0.0 mm 0.00 in0.0 mm 0.01 in0.3 mm
05:40 PM 42.6°F5.9°C 34.0°F1.1°C 71% Calm Calm 2.0 mph3.2 kmh 30.18 in1022.0 mb 0.00 in0.0 mm 0.00 in0.0 mm 0.01 in0.3 mm
05:45 PM 42.6°F5.9°C 34.3°F1.3°C 72% Calm Calm 3.0 mph4.8 kmh 30.18 in1022.0 mb 0.00 in0.0 mm 0.00 in0.0 mm 0.01 in0.3 mm
05:50 PM 42.6°F5.9°C 34.2°F1.2°C 72% 1.0 mph NW1.6 kmh NW 4.0 mph6.4 kmh 30.18 in1022.0 mb 0.00 in0.0 mm 0.00 in0.0 mm 0.01 in0.3 mm
05:55 PM 42.6°F5.9°C 34.2°F1.2°C 72% Calm Calm 4.0 mph6.4 kmh 30.19 in1022.4 mb 0.00 in0.0 mm 0.00 in0.0 mm 0.01 in0.3 mm
06:00 PM 42.4°F5.8°C 34.2°F1.2°C 72% Calm Calm 2.0 mph3.2 kmh 30.19 in1022.4 mb 0.00 in0.0 mm 0.00 in0.0 mm 0.01 in0.3 mm
06:05 PM 42.4°F5.8°C 34.0°F1.1°C 72% Calm Calm 2.0 mph3.2 kmh 30.19 in1022.4 mb 0.00 in0.0 mm 0.00 in0.0 mm 0.01 in0.3 mm
06:10 PM 42.4°F5.8°C 34.0°F1.1°C 72% Calm Calm 2.0 mph3.2 kmh 30.19 in1022.4 mb 0.00 in0.0 mm 0.00 in0.0 mm 0.01 in0.3 mm
06:15 PM 42.4°F5.8°C 34.0°F1.1°C 72% Calm Calm 2.0 mph3.2 kmh 30.19 in1022.4 mb 0.00 in0.0 mm 0.00 in0.0 mm 0.01 in0.3 mm
06:20 PM 42.4°F5.8°C 34.0°F1.1°C 72% Calm Calm 2.0 mph3.2 kmh 30.19 in1022.4 mb 0.00 in0.0 mm 0.00 in0.0 mm 0.01 in0.3 mm
06:25 PM 42.4°F5.8°C 34.0°F1.1°C 72% Calm Calm 2.0 mph3.2 kmh 30.19 in1022.4 mb 0.00 in0.0 mm 0.00 in0.0 mm 0.01 in0.3 mm
06:30 PM 42.3°F5.7°C 34.0°F1.1°C 72% Calm Calm 2.0 mph3.2 kmh 30.20 in1022.7 mb 0.00 in0.0 mm 0.00 in0.0 mm 0.01 in0.3 mm
06:35 PM 42.3°F5.7°C 34.3°F1.3°C 73% Calm Calm 2.0 mph3.2 kmh 30.20 in1022.7 mb 0.00 in0.0 mm 0.00 in0.0 mm 0.01 in0.3 mm
06:40 PM 42.3°F5.7°C 34.3°F1.3°C 73% Calm Calm 3.0 mph4.8 kmh 30.20 in1022.7 mb 0.00 in0.0 mm 0.00 in0.0 mm 0.01 in0.3 mm
06:45 PM 42.3°F5.7°C 34.3°F1.3°C 73% Calm Calm 3.0 mph4.8 kmh 30.20 in1022.7 mb 0.00 in0.0 mm 0.00 in0.0 mm 0.01 in0.3 mm
06:50 PM 42.3°F5.7°C 34.3°F1.3°C 73% Calm Calm 3.0 mph4.8 kmh 30.20 in1022.7 mb 0.00 in0.0 mm 0.00 in0.0 mm 0.01 in0.3 mm
06:55 PM 42.3°F5.7°C 34.3°F1.3°C 73% Calm Calm 3.0 mph4.8 kmh 30.20 in1022.7 mb 0.00 in0.0 mm 0.00 in0.0 mm 0.01 in0.3 mm
07:00 PM 42.3°F5.7°C 34.3°F1.3°C 73% Calm Calm 3.0 mph4.8 kmh 30.20 in1022.7 mb 0.00 in0.0 mm 0.00 in0.0 mm 0.01 in0.3 mm
07:05 PM 42.3°F5.7°C 34.0°F1.1°C 72% Calm Calm 4.0 mph6.4 kmh 30.20 in1022.7 mb 0.00 in0.0 mm 0.00 in0.0 mm 0.01 in0.3 mm
07:10 PM 42.3°F5.7°C 34.0°F1.1°C 72% 1.0 mph W1.6 kmh W 4.0 mph6.4 kmh 30.20 in1022.7 mb 0.00 in0.0 mm 0.00 in0.0 mm 0.01 in0.3 mm
07:15 PM 42.3°F5.7°C 34.2°F1.2°C 73% Calm Calm 2.0 mph3.2 kmh 30.20 in1022.7 mb 0.00 in0.0 mm 0.00 in0.0 mm 0.01 in0.3 mm
07:20 PM 42.1°F5.6°C 34.0°F1.1°C 73% Calm Calm 3.0 mph4.8 kmh 30.20 in1022.7 mb 0.00 in0.0 mm 0.00 in0.0 mm 0.01 in0.3 mm
07:25 PM 42.1°F5.6°C 34.0°F1.1°C 73% Calm Calm 3.0 mph4.8 kmh 30.20 in1022.7 mb 0.00 in0.0 mm 0.00 in0.0 mm 0.01 in0.3 mm
07:30 PM 42.1°F5.6°C 34.0°F1.1°C 73% Calm Calm 3.0 mph4.8 kmh 30.21 in1023.0 mb 0.00 in0.0 mm 0.00 in0.0 mm 0.01 in0.3 mm
07:35 PM 42.1°F5.6°C 34.0°F1.1°C 73% Calm Calm 3.0 mph4.8 kmh 30.21 in1023.0 mb 0.00 in0.0 mm 0.00 in0.0 mm 0.01 in0.3 mm
07:40 PM 41.9°F5.5°C 33.8°F1.0°C 73% Calm Calm 2.0 mph3.2 kmh 30.21 in1023.0 mb 0.00 in0.0 mm 0.00 in0.0 mm 0.01 in0.3 mm
07:45 PM 41.9°F5.5°C 33.8°F1.0°C 73% Calm Calm 1.0 mph1.6 kmh 30.21 in1023.0 mb 0.00 in0.0 mm 0.00 in0.0 mm 0.01 in0.3 mm
07:50 PM 41.9°F5.5°C 33.8°F1.0°C 73% Calm Calm 1.0 mph1.6 kmh 30.21 in1023.0 mb 0.00 in0.0 mm 0.00 in0.0 mm 0.01 in0.3 mm
07:55 PM 41.7°F5.4°C 33.8°F1.0°C 73% Calm Calm 1.0 mph1.6 kmh 30.21 in1023.0 mb 0.00 in0.0 mm 0.00 in0.0 mm 0.01 in0.3 mm
08:00 PM 41.7°F5.4°C 33.8°F1.0°C 73% Calm Calm 2.0 mph3.2 kmh 30.21 in1023.0 mb 0.00 in0.0 mm 0.00 in0.0 mm 0.01 in0.3 mm
08:05 PM 41.7°F5.4°C 33.6°F0.9°C 73% Calm Calm 2.0 mph3.2 kmh 30.22 in1023.4 mb 0.00 in0.0 mm 0.00 in0.0 mm 0.01 in0.3 mm
08:10 PM 41.7°F5.4°C 34.0°F1.1°C 74% Calm Calm 1.0 mph1.6 kmh 30.21 in1023.0 mb 0.00 in0.0 mm 0.00 in0.0 mm 0.01 in0.3 mm
08:15 PM 41.5°F5.3°C 34.0°F1.1°C 74% Calm Calm 3.0 mph4.8 kmh 30.22 in1023.4 mb 0.00 in0.0 mm 0.00 in0.0 mm 0.01 in0.3 mm
08:20 PM 41.5°F5.3°C 34.0°F1.1°C 74% Calm Calm 3.0 mph4.8 kmh 30.22 in1023.4 mb 0.00 in0.0 mm 0.00 in0.0 mm 0.01 in0.3 mm
08:25 PM 41.5°F5.3°C 33.8°F1.0°C 74% Calm Calm 3.0 mph4.8 kmh 30.22 in1023.4 mb 0.00 in0.0 mm 0.00 in0.0 mm 0.01 in0.3 mm
08:30 PM 41.5°F5.3°C 33.8°F1.0°C 74% Calm Calm 1.0 mph1.6 kmh 30.22 in1023.4 mb 0.00 in0.0 mm 0.00 in0.0 mm 0.01 in0.3 mm
08:35 PM 41.5°F5.3°C 33.8°F1.0°C 74% Calm Calm 3.0 mph4.8 kmh 30.22 in1023.4 mb 0.00 in0.0 mm 0.00 in0.0 mm 0.01 in0.3 mm
08:40 PM 41.5°F5.3°C 34.0°F1.1°C 74% Calm Calm 3.0 mph4.8 kmh 30.22 in1023.4 mb 0.00 in0.0 mm 0.00 in0.0 mm 0.01 in0.3 mm
08:45 PM 41.5°F5.3°C 33.8°F1.0°C 74% Calm Calm 1.0 mph1.6 kmh 30.22 in1023.4 mb 0.00 in0.0 mm 0.00 in0.0 mm 0.01 in0.3 mm
08:50 PM 41.5°F5.3°C 33.8°F1.0°C 74% Calm Calm 2.0 mph3.2 kmh 30.22 in1023.4 mb 0.00 in0.0 mm 0.00 in0.0 mm 0.01 in0.3 mm
08:55 PM 41.4°F5.2°C 33.8°F1.0°C 74% Calm Calm 2.0 mph3.2 kmh 30.23 in1023.7 mb 0.00 in0.0 mm 0.00 in0.0 mm 0.01 in0.3 mm
09:00 PM 41.4°F5.2°C 33.8°F1.0°C 74% Calm Calm 2.0 mph3.2 kmh 30.23 in1023.7 mb 0.00 in0.0 mm 0.00 in0.0 mm 0.01 in0.3 mm
09:05 PM 41.4°F5.2°C 34.0°F1.1°C 75% Calm Calm 2.0 mph3.2 kmh 30.23 in1023.7 mb 0.00 in0.0 mm 0.00 in0.0 mm 0.01 in0.3 mm
09:10 PM 41.2°F5.1°C 33.8°F1.0°C 75% Calm Calm 1.0 mph1.6 kmh 30.23 in1023.7 mb 0.00 in0.0 mm 0.00 in0.0 mm 0.01 in0.3 mm
09:15 PM 41.2°F5.1°C 33.8°F1.0°C 75% Calm Calm 1.0 mph1.6 kmh 30.23 in1023.7 mb 0.00 in0.0 mm 0.00 in0.0 mm 0.01 in0.3 mm
09:20 PM 41.2°F5.1°C 33.8°F1.0°C 75% Calm Calm 1.0 mph1.6 kmh 30.23 in1023.7 mb 0.00 in0.0 mm 0.00 in0.0 mm 0.01 in0.3 mm
09:25 PM 41.2°F5.1°C 33.8°F1.0°C 75% Calm Calm 1.0 mph1.6 kmh 30.23 in1023.7 mb 0.00 in0.0 mm 0.00 in0.0 mm 0.01 in0.3 mm
09:30 PM 41.2°F5.1°C 33.8°F1.0°C 75% Calm Calm 2.0 mph3.2 kmh 30.23 in1023.7 mb 0.00 in0.0 mm 0.00 in0.0 mm 0.01 in0.3 mm
09:35 PM 41.2°F5.1°C 33.8°F1.0°C 75% Calm Calm 2.0 mph3.2 kmh 30.23 in1023.7 mb 0.00 in0.0 mm 0.00 in0.0 mm 0.01 in0.3 mm
09:40 PM 41.2°F5.1°C 33.8°F1.0°C 75% Calm Calm 2.0 mph3.2 kmh 30.23 in1023.7 mb 0.00 in0.0 mm 0.00 in0.0 mm 0.01 in0.3 mm
09:45 PM 41.2°F5.1°C 33.8°F1.0°C 75% Calm Calm 2.0 mph3.2 kmh 30.23 in1023.7 mb 0.00 in0.0 mm 0.00 in0.0 mm 0.01 in0.3 mm
09:50 PM 41.2°F5.1°C 33.8°F1.0°C 75% Calm Calm 3.0 mph4.8 kmh 30.23 in1023.7 mb 0.00 in0.0 mm 0.00 in0.0 mm 0.01 in0.3 mm
09:55 PM 41.2°F5.1°C 33.8°F1.0°C 75% Calm Calm 3.0 mph4.8 kmh 30.23 in1023.7 mb 0.00 in0.0 mm 0.00 in0.0 mm 0.01 in0.3 mm
10:00 PM 41.0°F5.0°C 33.6°F0.9°C 75% Calm Calm 1.0 mph1.6 kmh 30.23 in1023.7 mb 0.00 in0.0 mm 0.00 in0.0 mm 0.01 in0.3 mm
10:05 PM 41.0°F5.0°C 33.6°F0.9°C 75% Calm Calm 2.0 mph3.2 kmh 30.23 in1023.7 mb 0.00 in0.0 mm 0.00 in0.0 mm 0.01 in0.3 mm
10:10 PM 40.8°F4.9°C 33.6°F0.9°C 75% Calm Calm 2.0 mph3.2 kmh 30.23 in1023.7 mb 0.00 in0.0 mm 0.00 in0.0 mm 0.01 in0.3 mm
10:15 PM 40.8°F4.9°C 33.6°F0.9°C 75% Calm Calm 1.0 mph1.6 kmh 30.23 in1023.7 mb 0.00 in0.0 mm 0.00 in0.0 mm 0.01 in0.3 mm
10:20 PM 40.8°F4.9°C 33.6°F0.9°C 75% Calm Calm 2.0 mph3.2 kmh 30.23 in1023.7 mb 0.00 in0.0 mm 0.00 in0.0 mm 0.01 in0.3 mm
10:25 PM 40.8°F4.9°C 33.4°F0.8°C 75% Calm Calm 2.0 mph3.2 kmh 30.23 in1023.7 mb 0.00 in0.0 mm 0.00 in0.0 mm 0.01 in0.3 mm
10:30 PM 40.8°F4.9°C 33.8°F1.0°C 76% Calm Calm 2.0 mph3.2 kmh 30.23 in1023.7 mb 0.00 in0.0 mm 0.00 in0.0 mm 0.01 in0.3 mm
10:35 PM 40.8°F4.9°C 33.8°F1.0°C 76% Calm Calm 2.0 mph3.2 kmh 30.23 in1023.7 mb 0.00 in0.0 mm 0.00 in0.0 mm 0.01 in0.3 mm
10:40 PM 40.8°F4.9°C 33.8°F1.0°C 76% Calm Calm -- 30.23 in1023.7 mb 0.00 in0.0 mm 0.00 in0.0 mm 0.01 in0.3 mm
10:45 PM 40.8°F4.9°C 34.2°F1.2°C 77% Calm Calm 1.0 mph1.6 kmh 30.23 in1023.7 mb 0.00 in0.0 mm 0.00 in0.0 mm 0.01 in0.3 mm
10:50 PM 40.8°F4.9°C 34.2°F1.2°C 77% Calm Calm 1.0 mph1.6 kmh 30.23 in1023.7 mb 0.00 in0.0 mm 0.00 in0.0 mm 0.01 in0.3 mm
10:55 PM 40.8°F4.9°C 34.2°F1.2°C 77% Calm Calm -- 30.23 in1023.7 mb 0.00 in0.0 mm 0.00 in0.0 mm 0.01 in0.3 mm
11:00 PM 40.6°F4.8°C 34.3°F1.3°C 78% Calm Calm -- 30.23 in1023.7 mb 0.00 in0.0 mm 0.00 in0.0 mm 0.01 in0.3 mm
11:05 PM 40.6°F4.8°C 34.3°F1.3°C 78% Calm Calm 1.0 mph1.6 kmh 30.23 in1023.7 mb 0.00 in0.0 mm 0.00 in0.0 mm 0.01 in0.3 mm
11:10 PM 40.6°F4.8°C 34.3°F1.3°C 78% Calm Calm 1.0 mph1.6 kmh 30.23 in1023.7 mb 0.00 in0.0 mm 0.00 in0.0 mm 0.01 in0.3 mm
11:15 PM 40.5°F4.7°C 34.2°F1.2°C 78% Calm Calm 1.0 mph1.6 kmh 30.23 in1023.7 mb 0.00 in0.0 mm 0.00 in0.0 mm 0.01 in0.3 mm
11:20 PM 40.5°F4.7°C 34.2°F1.2°C 78% Calm Calm 1.0 mph1.6 kmh 30.23 in1023.7 mb 0.00 in0.0 mm 0.00 in0.0 mm 0.01 in0.3 mm
11:25 PM 40.5°F4.7°C 34.2°F1.2°C 78% Calm Calm 1.0 mph1.6 kmh 30.23 in1023.7 mb 0.00 in0.0 mm 0.00 in0.0 mm 0.01 in0.3 mm
11:30 PM 40.5°F4.7°C 34.2°F1.2°C 78% Calm Calm 1.0 mph1.6 kmh 30.23 in1023.7 mb 0.00 in0.0 mm 0.00 in0.0 mm 0.01 in0.3 mm
11:35 PM 40.5°F4.7°C 34.2°F1.2°C 78% Calm Calm 1.0 mph1.6 kmh 30.23 in1023.7 mb 0.00 in0.0 mm 0.00 in0.0 mm 0.01 in0.3 mm
11:40 PM 40.5°F4.7°C 34.2°F1.2°C 78% Calm Calm 1.0 mph1.6 kmh 30.23 in1023.7 mb 0.00 in0.0 mm 0.00 in0.0 mm 0.01 in0.3 mm
11:45 PM 40.3°F4.6°C 34.0°F1.1°C 78% Calm Calm 1.0 mph1.6 kmh 30.23 in1023.7 mb 0.00 in0.0 mm 0.00 in0.0 mm 0.01 in0.3 mm
11:50 PM 40.3°F4.6°C 33.8°F1.0°C 78% Calm Calm -- 30.23 in1023.7 mb 0.00 in0.0 mm 0.00 in0.0 mm 0.01 in0.3 mm
11:55 PM 40.1°F4.5°C 33.8°F1.0°C 78% Calm Calm -- 30.23 in1023.7 mb 0.00 in0.0 mm 0.00 in0.0 mm 0.01 in0.3 mm